sensor_id;sensor_type;location;lat;lon;timestamp;pressure;altitude;pressure_sealevel;temperature;humidity
58979;BME280;44763;50.464;30.612;2023-05-23T00:01:16;100300.55;;;14.52;69.45
58979;BME280;44763;50.464;30.612;2023-05-23T00:03:43;100297.80;;;14.48;69.60
58979;BME280;44763;50.464;30.612;2023-05-23T00:06:10;100294.69;;;14.46;70.11
58979;BME280;44763;50.464;30.612;2023-05-23T00:08:39;100295.15;;;14.44;70.45
58979;BME280;44763;50.464;30.612;2023-05-23T00:11:06;100293.52;;;14.40;71.18
58979;BME280;44763;50.464;30.612;2023-05-23T00:13:33;100287.73;;;14.36;71.25
58979;BME280;44763;50.464;30.612;2023-05-23T00:16:00;100287.24;;;14.33;71.22
58979;BME280;44763;50.464;30.612;2023-05-23T00:18:28;100283.66;;;14.33;71.17
58979;BME280;44763;50.464;30.612;2023-05-23T00:20:56;100282.00;;;14.35;71.52
58979;BME280;44763;50.464;30.612;2023-05-23T00:23:23;100281.59;;;14.35;71.53
58979;BME280;44763;50.464;30.612;2023-05-23T00:25:50;100277.67;;;14.32;72.02
58979;BME280;44763;50.464;30.612;2023-05-23T00:28:21;100273.41;;;14.28;72.12
58979;BME280;44763;50.464;30.612;2023-05-23T00:30:48;100271.77;;;14.26;72.42
58979;BME280;44763;50.464;30.612;2023-05-23T00:33:16;100273.61;;;14.22;72.69
58979;BME280;44763;50.464;30.612;2023-05-23T00:35:42;100270.46;;;14.15;73.14
58979;BME280;44763;50.464;30.612;2023-05-23T00:38:09;100269.39;;;14.08;73.59
58979;BME280;44763;50.464;30.612;2023-05-23T00:40:37;100269.80;;;14.05;73.78
58979;BME280;44763;50.464;30.612;2023-05-23T00:43:03;100270.81;;;14.05;73.84
58979;BME280;44763;50.464;30.612;2023-05-23T00:45:30;100268.82;;;14.05;73.96
58979;BME280;44763;50.464;30.612;2023-05-23T00:47:57;100267.65;;;14.00;74.79
58979;BME280;44763;50.464;30.612;2023-05-23T00:50:26;100267.52;;;14.01;75.22
58979;BME280;44763;50.464;30.612;2023-05-23T00:52:56;100263.30;;;14.05;75.13
58979;BME280;44763;50.464;30.612;2023-05-23T00:56:07;100261.56;;;14.04;75.32
58979;BME280;44763;50.464;30.612;2023-05-23T00:58:34;100259.66;;;14.00;75.73
58979;BME280;44763;50.464;30.612;2023-05-23T01:05:07;100257.72;;;13.88;76.39
58979;BME280;44763;50.464;30.612;2023-05-23T01:07:34;100254.36;;;13.81;76.83
58979;BME280;44763;50.464;30.612;2023-05-23T01:10:02;100253.59;;;13.79;76.79
58979;BME280;44763;50.464;30.612;2023-05-23T01:15:24;100254.20;;;13.84;76.62
58979;BME280;44763;50.464;30.612;2023-05-23T01:18:01;100254.11;;;13.86;76.60
58979;BME280;44763;50.464;30.612;2023-05-23T01:20:38;100257.66;;;13.81;76.86
58979;BME280;44763;50.464;30.612;2023-05-23T01:26:32;100256.16;;;13.71;77.13
58979;BME280;44763;50.464;30.612;2023-05-23T01:29:12;100255.11;;;13.67;77.20
58979;BME280;44763;50.464;30.612;2023-05-23T01:31:45;100251.83;;;13.63;77.39
58979;BME280;44763;50.464;30.612;2023-05-23T01:34:14;100253.44;;;13.59;77.38
58979;BME280;44763;50.464;30.612;2023-05-23T01:40:22;100256.03;;;13.64;77.91
58979;BME280;44763;50.464;30.612;2023-05-23T01:42:50;100252.48;;;13.65;78.10
58979;BME280;44763;50.464;30.612;2023-05-23T02:00:40;100247.29;;;13.48;78.93
58979;BME280;44763;50.464;30.612;2023-05-23T02:08:37;100247.71;;;13.59;79.17
58979;BME280;44763;50.464;30.612;2023-05-23T02:11:05;100250.08;;;13.57;79.46
58979;BME280;44763;50.464;30.612;2023-05-23T02:21:22;100240.63;;;13.56;80.01
58979;BME280;44763;50.464;30.612;2023-05-23T02:27:12;100230.73;;;13.71;80.21
58979;BME280;44763;50.464;30.612;2023-05-23T02:29:40;100225.81;;;13.78;80.04
58979;BME280;44763;50.464;30.612;2023-05-23T02:32:07;100227.73;;;13.84;80.10
58979;BME280;44763;50.464;30.612;2023-05-23T02:34:34;100229.90;;;13.87;80.01
58979;BME280;44763;50.464;30.612;2023-05-23T02:37:00;100230.45;;;13.85;80.16
58979;BME280;44763;50.464;30.612;2023-05-23T02:39:27;100230.35;;;13.87;80.40
58979;BME280;44763;50.464;30.612;2023-05-23T02:41:54;100229.68;;;13.90;80.27
58979;BME280;44763;50.464;30.612;2023-05-23T02:44:20;100230.56;;;13.93;80.19
58979;BME280;44763;50.464;30.612;2023-05-23T02:46:47;100228.55;;;13.95;79.81
58979;BME280;44763;50.464;30.612;2023-05-23T02:49:14;100225.77;;;14.06;79.69
58979;BME280;44763;50.464;30.612;2023-05-23T03:03:12;100223.94;;;16.74;69.60
58979;BME280;44763;50.464;30.612;2023-05-23T03:09:19;100221.30;;;17.96;60.61
58979;BME280;44763;50.464;30.612;2023-05-23T03:18:57;100211.95;;;18.99;55.67
58979;BME280;44763;50.464;30.612;2023-05-23T03:21:24;100210.17;;;19.25;54.00
58979;BME280;44763;50.464;30.612;2023-05-23T03:23:52;100211.20;;;19.53;52.76
58979;BME280;44763;50.464;30.612;2023-05-23T03:26:19;100213.10;;;19.78;51.35
58979;BME280;44763;50.464;30.612;2023-05-23T03:28:48;100214.80;;;20.00;50.02
58979;BME280;44763;50.464;30.612;2023-05-23T03:31:18;100214.20;;;20.10;49.15
58979;BME280;44763;50.464;30.612;2023-05-23T03:33:44;100210.79;;;20.19;49.15
58979;BME280;44763;50.464;30.612;2023-05-23T03:36:11;100213.36;;;20.33;48.52
58979;BME280;44763;50.464;30.612;2023-05-23T03:38:38;100216.90;;;20.52;48.50
58979;BME280;44763;50.464;30.612;2023-05-23T03:41:05;100215.63;;;20.88;47.71
58979;BME280;44763;50.464;30.612;2023-05-23T03:47:40;100218.21;;;21.53;45.84
58979;BME280;44763;50.464;30.612;2023-05-23T03:50:09;100216.16;;;21.66;44.90
58979;BME280;44763;50.464;30.612;2023-05-23T03:52:36;100211.74;;;21.74;44.38
58979;BME280;44763;50.464;30.612;2023-05-23T03:55:25;100211.95;;;21.85;44.35
58979;BME280;44763;50.464;30.612;2023-05-23T03:57:52;100206.11;;;22.15;44.51
58979;BME280;44763;50.464;30.612;2023-05-23T04:00:19;100205.54;;;22.45;44.49
58979;BME280;44763;50.464;30.612;2023-05-23T04:02:49;100208.96;;;22.79;43.41
58979;BME280;44763;50.464;30.612;2023-05-23T04:05:20;100210.25;;;23.09;42.05
58979;BME280;44763;50.464;30.612;2023-05-23T04:07:48;100209.49;;;23.11;41.35
58979;BME280;44763;50.464;30.612;2023-05-23T04:10:15;100207.16;;;23.11;40.92
58979;BME280;44763;50.464;30.612;2023-05-23T04:12:43;100207.83;;;23.21;40.38
58979;BME280;44763;50.464;30.612;2023-05-23T04:15:13;100216.25;;;23.31;40.10
58979;BME280;44763;50.464;30.612;2023-05-23T04:17:53;100199.76;;;23.34;39.88
58979;BME280;44763;50.464;30.612;2023-05-23T04:20:20;100208.66;;;23.57;39.59
58979;BME280;44763;50.464;30.612;2023-05-23T04:22:46;100208.80;;;23.71;39.67
58979;BME280;44763;50.464;30.612;2023-05-23T04:25:13;100207.15;;;23.79;39.16
58979;BME280;44763;50.464;30.612;2023-05-23T04:27:46;100194.73;;;23.65;39.11
58979;BME280;44763;50.464;30.612;2023-05-23T04:30:13;100205.35;;;23.67;39.11
58979;BME280;44763;50.464;30.612;2023-05-23T04:32:43;100205.89;;;23.52;39.19
58979;BME280;44763;50.464;30.612;2023-05-23T04:35:10;100204.90;;;23.40;39.80
58979;BME280;44763;50.464;30.612;2023-05-23T04:37:40;100208.33;;;23.41;39.74
58979;BME280;44763;50.464;30.612;2023-05-23T04:40:08;100212.39;;;23.45;39.73
58979;BME280;44763;50.464;30.612;2023-05-23T04:42:43;100212.30;;;23.56;39.53
58979;BME280;44763;50.464;30.612;2023-05-23T04:45:37;100214.46;;;23.25;39.69
58979;BME280;44763;50.464;30.612;2023-05-23T04:48:22;100218.65;;;22.50;40.82
58979;BME280;44763;50.464;30.612;2023-05-23T04:50:49;100220.39;;;21.61;42.76
58979;BME280;44763;50.464;30.612;2023-05-23T04:53:17;100221.79;;;21.01;44.59
58979;BME280;44763;50.464;30.612;2023-05-23T04:55:45;100223.73;;;20.65;45.75
58979;BME280;44763;50.464;30.612;2023-05-23T04:58:14;100221.61;;;20.42;46.56
58979;BME280;44763;50.464;30.612;2023-05-23T05:00:41;100220.83;;;20.22;47.45
58979;BME280;44763;50.464;30.612;2023-05-23T05:03:08;100205.39;;;19.96;48.84
58979;BME280;44763;50.464;30.612;2023-05-23T05:05:38;100220.39;;;19.91;49.55
58979;BME280;44763;50.464;30.612;2023-05-23T05:08:04;100217.16;;;19.98;49.93
58979;BME280;44763;50.464;30.612;2023-05-23T05:10:31;100219.27;;;20.45;49.56
58979;BME280;44763;50.464;30.612;2023-05-23T05:12:58;100220.54;;;21.07;47.17
58979;BME280;44763;50.464;30.612;2023-05-23T05:15:32;100222.55;;;21.52;45.30
58979;BME280;44763;50.464;30.612;2023-05-23T05:17:59;100222.35;;;21.65;44.94
58979;BME280;44763;50.464;30.612;2023-05-23T05:20:25;100226.43;;;21.68;44.72
58979;BME280;44763;50.464;30.612;2023-05-23T05:22:57;100226.57;;;21.74;44.76
58979;BME280;44763;50.464;30.612;2023-05-23T05:25:23;100228.45;;;21.71;44.76
58979;BME280;44763;50.464;30.612;2023-05-23T05:27:50;100233.33;;;21.70;45.18
58979;BME280;44763;50.464;30.612;2023-05-23T05:30:19;100234.45;;;21.69;45.03
58979;BME280;44763;50.464;30.612;2023-05-23T05:32:57;100232.52;;;21.72;44.94
58979;BME280;44763;50.464;30.612;2023-05-23T05:35:25;100227.03;;;21.84;44.89
58979;BME280;44763;50.464;30.612;2023-05-23T05:37:51;100221.52;;;21.94;44.82
58979;BME280;44763;50.464;30.612;2023-05-23T05:40:18;100221.88;;;22.02;44.96
58979;BME280;44763;50.464;30.612;2023-05-23T05:42:45;100205.77;;;22.02;44.90
58979;BME280;44763;50.464;30.612;2023-05-23T05:45:12;100216.17;;;22.22;44.88
58979;BME280;44763;50.464;30.612;2023-05-23T05:47:40;100214.55;;;22.47;45.16
58979;BME280;44763;50.464;30.612;2023-05-23T05:50:07;100214.76;;;22.90;44.16
58979;BME280;44763;50.464;30.612;2023-05-23T05:52:37;100212.48;;;23.29;43.22
58979;BME280;44763;50.464;30.612;2023-05-23T05:55:07;100208.50;;;23.54;42.57
58979;BME280;44763;50.464;30.612;2023-05-23T05:57:38;100208.71;;;23.54;42.44
58979;BME280;44763;50.464;30.612;2023-05-23T06:00:07;100211.66;;;23.49;42.43
58979;BME280;44763;50.464;30.612;2023-05-23T06:02:46;100210.36;;;23.35;42.85
58979;BME280;44763;50.464;30.612;2023-05-23T06:05:16;100213.21;;;23.42;42.55
58979;BME280;44763;50.464;30.612;2023-05-23T06:07:47;100216.08;;;23.63;42.36
58979;BME280;44763;50.464;30.612;2023-05-23T06:10:13;100211.46;;;23.88;41.70
58979;BME280;44763;50.464;30.612;2023-05-23T06:12:41;100208.14;;;24.00;41.55
58979;BME280;44763;50.464;30.612;2023-05-23T06:15:09;100206.95;;;23.90;41.60
58979;BME280;44763;50.464;30.612;2023-05-23T06:17:36;100205.04;;;23.63;42.28
58979;BME280;44763;50.464;30.612;2023-05-23T06:20:04;100204.54;;;23.32;42.41
58979;BME280;44763;50.464;30.612;2023-05-23T06:22:32;100200.83;;;23.13;42.76
58979;BME280;44763;50.464;30.612;2023-05-23T06:24:59;100196.49;;;23.01;43.56
58979;BME280;44763;50.464;30.612;2023-05-23T06:27:26;100196.67;;;22.79;44.28
58979;BME280;44763;50.464;30.612;2023-05-23T06:29:53;100195.32;;;22.42;45.08
58979;BME280;44763;50.464;30.612;2023-05-23T06:32:21;100192.42;;;22.11;46.41
58979;BME280;44763;50.464;30.612;2023-05-23T06:34:47;100192.17;;;21.93;46.96
58979;BME280;44763;50.464;30.612;2023-05-23T06:37:14;100193.77;;;21.80;47.73
58979;BME280;44763;50.464;30.612;2023-05-23T06:39:42;100196.66;;;21.73;48.42
58979;BME280;44763;50.464;30.612;2023-05-23T06:42:08;100196.63;;;21.64;47.87
58979;BME280;44763;50.464;30.612;2023-05-23T06:44:50;100180.21;;;21.42;48.64
58979;BME280;44763;50.464;30.612;2023-05-23T06:47:17;100190.82;;;21.51;49.05
58979;BME280;44763;50.464;30.612;2023-05-23T06:49:44;100188.33;;;21.77;48.34
58979;BME280;44763;50.464;30.612;2023-05-23T06:52:11;100183.00;;;21.91;48.11
58979;BME280;44763;50.464;30.612;2023-05-23T06:54:40;100177.05;;;22.07;47.70
58979;BME280;44763;50.464;30.612;2023-05-23T06:57:07;100177.88;;;22.12;47.46
58979;BME280;44763;50.464;30.612;2023-05-23T06:59:34;100177.00;;;22.05;47.46
58979;BME280;44763;50.464;30.612;2023-05-23T07:02:01;100174.58;;;21.91;47.10
58979;BME280;44763;50.464;30.612;2023-05-23T07:04:28;100166.45;;;21.73;47.39
58979;BME280;44763;50.464;30.612;2023-05-23T07:06:56;100176.80;;;21.72;47.75
58979;BME280;44763;50.464;30.612;2023-05-23T07:09:23;100179.29;;;21.68;47.51
58979;BME280;44763;50.464;30.612;2023-05-23T07:11:51;100179.27;;;21.63;47.93
58979;BME280;44763;50.464;30.612;2023-05-23T07:14:18;100173.67;;;21.73;48.28
58979;BME280;44763;50.464;30.612;2023-05-23T07:16:46;100171.85;;;21.65;48.84
58979;BME280;44763;50.464;30.612;2023-05-23T07:19:13;100168.16;;;21.40;49.75
58979;BME280;44763;50.464;30.612;2023-05-23T07:21:44;100168.33;;;21.33;50.33
58979;BME280;44763;50.464;30.612;2023-05-23T07:24:12;100160.50;;;21.40;50.81
58979;BME280;44763;50.464;30.612;2023-05-23T07:26:38;100160.30;;;21.65;50.67
58979;BME280;44763;50.464;30.612;2023-05-23T07:29:05;100157.09;;;21.84;49.18
58979;BME280;44763;50.464;30.612;2023-05-23T07:31:33;100152.67;;;21.95;48.77
58979;BME280;44763;50.464;30.612;2023-05-23T07:34:00;100156.54;;;22.14;48.09
58979;BME280;44763;50.464;30.612;2023-05-23T07:36:32;100159.03;;;22.36;47.26
58979;BME280;44763;50.464;30.612;2023-05-23T07:41:52;100146.34;;;22.50;46.24
58979;BME280;44763;50.464;30.612;2023-05-23T07:44:19;100148.02;;;22.42;46.27
58979;BME280;44763;50.464;30.612;2023-05-23T07:46:49;100149.70;;;22.34;45.97
58979;BME280;44763;50.464;30.612;2023-05-23T07:49:16;100147.08;;;22.37;45.57
58979;BME280;44763;50.464;30.612;2023-05-23T07:51:43;100135.97;;;22.38;45.83
58979;BME280;44763;50.464;30.612;2023-05-23T07:54:10;100139.66;;;22.36;46.68
58979;BME280;44763;50.464;30.612;2023-05-23T07:56:38;100133.96;;;22.41;46.10
58979;BME280;44763;50.464;30.612;2023-05-23T07:59:06;100129.94;;;22.42;45.66
58979;BME280;44763;50.464;30.612;2023-05-23T08:01:34;100136.28;;;22.43;45.19
58979;BME280;44763;50.464;30.612;2023-05-23T08:04:03;100133.19;;;22.49;44.94
58979;BME280;44763;50.464;30.612;2023-05-23T08:06:56;100135.15;;;22.51;45.07
58979;BME280;44763;50.464;30.612;2023-05-23T08:09:31;100129.71;;;22.50;45.25
58979;BME280;44763;50.464;30.612;2023-05-23T08:11:58;100127.48;;;22.55;45.82
58979;BME280;44763;50.464;30.612;2023-05-23T08:14:28;100120.35;;;22.65;45.48
58979;BME280;44763;50.464;30.612;2023-05-23T08:17:21;100115.08;;;22.68;45.05
58979;BME280;44763;50.464;30.612;2023-05-23T08:19:49;100119.32;;;22.59;44.92
58979;BME280;44763;50.464;30.612;2023-05-23T08:22:17;100122.48;;;22.45;44.82
58979;BME280;44763;50.464;30.612;2023-05-23T08:24:44;100112.45;;;22.32;45.06
58979;BME280;44763;50.464;30.612;2023-05-23T08:27:10;100107.89;;;22.27;45.80
58979;BME280;44763;50.464;30.612;2023-05-23T08:29:38;100105.55;;;22.36;46.76
58979;BME280;44763;50.464;30.612;2023-05-23T08:32:05;100107.48;;;22.53;46.70
58979;BME280;44763;50.464;30.612;2023-05-23T08:34:34;100109.26;;;22.67;46.02
58979;BME280;44763;50.464;30.612;2023-05-23T08:37:01;100098.51;;;22.68;45.47
58979;BME280;44763;50.464;30.612;2023-05-23T08:39:29;100090.25;;;22.67;46.84
58979;BME280;44763;50.464;30.612;2023-05-23T08:42:15;100088.44;;;22.75;47.47
58979;BME280;44763;50.464;30.612;2023-05-23T08:44:42;100092.81;;;22.85;46.12
58979;BME280;44763;50.464;30.612;2023-05-23T08:47:09;100092.63;;;22.92;45.84
58979;BME280;44763;50.464;30.612;2023-05-23T08:49:46;100086.84;;;23.01;46.78
58979;BME280;44763;50.464;30.612;2023-05-23T08:52:17;100083.07;;;23.12;47.25
58979;BME280;44763;50.464;30.612;2023-05-23T08:54:48;100077.06;;;23.23;46.13
58979;BME280;44763;50.464;30.612;2023-05-23T08:57:16;100068.11;;;23.28;46.33
58979;BME280;44763;50.464;30.612;2023-05-23T08:59:47;100069.88;;;23.33;46.35
58979;BME280;44763;50.464;30.612;2023-05-23T09:02:15;100073.02;;;23.38;46.13
58979;BME280;44763;50.464;30.612;2023-05-23T09:04:42;100069.73;;;23.41;46.19
58979;BME280;44763;50.464;30.612;2023-05-23T09:07:15;100072.16;;;23.44;46.17
58979;BME280;44763;50.464;30.612;2023-05-23T09:09:44;100064.85;;;23.47;46.03
58979;BME280;44763;50.464;30.612;2023-05-23T09:12:13;100064.61;;;23.51;45.65
58979;BME280;44763;50.464;30.612;2023-05-23T09:14:41;100065.30;;;23.56;45.39
58979;BME280;44763;50.464;30.612;2023-05-23T09:17:08;100068.91;;;23.58;45.20
58979;BME280;44763;50.464;30.612;2023-05-23T09:19:40;100063.59;;;23.58;44.97
58979;BME280;44763;50.464;30.612;2023-05-23T09:22:22;100056.48;;;23.57;45.18
58979;BME280;44763;50.464;30.612;2023-05-23T09:24:57;100057.14;;;23.62;45.28
58979;BME280;44763;50.464;30.612;2023-05-23T09:27:24;100058.73;;;23.69;45.24
58979;BME280;44763;50.464;30.612;2023-05-23T09:29:51;100061.69;;;23.77;44.36
58979;BME280;44763;50.464;30.612;2023-05-23T09:32:19;100058.41;;;23.76;43.75
58979;BME280;44763;50.464;30.612;2023-05-23T09:37:39;100048.21;;;23.70;43.77
58979;BME280;44763;50.464;30.612;2023-05-23T09:40:08;100044.61;;;23.63;43.82
58979;BME280;44763;50.464;30.612;2023-05-23T09:42:49;100044.94;;;23.56;44.56
58979;BME280;44763;50.464;30.612;2023-05-23T09:45:16;100045.44;;;23.55;44.78
58979;BME280;44763;50.464;30.612;2023-05-23T09:47:51;100042.94;;;23.54;44.85
58979;BME280;44763;50.464;30.612;2023-05-23T09:50:20;100034.95;;;23.55;44.98
58979;BME280;44763;50.464;30.612;2023-05-23T09:52:47;100033.17;;;23.58;44.86
58979;BME280;44763;50.464;30.612;2023-05-23T09:55:14;100034.54;;;23.65;44.90
58979;BME280;44763;50.464;30.612;2023-05-23T09:57:42;100024.69;;;23.65;44.56
58979;BME280;44763;50.464;30.612;2023-05-23T10:00:11;100038.21;;;23.75;44.38
58979;BME280;44763;50.464;30.612;2023-05-23T10:03:09;100037.02;;;23.77;44.72
58979;BME280;44763;50.464;30.612;2023-05-23T10:05:43;100041.21;;;23.82;45.02
58979;BME280;44763;50.464;30.612;2023-05-23T10:08:33;100046.19;;;23.84;44.54
58979;BME280;44763;50.464;30.612;2023-05-23T10:14:09;100035.59;;;23.62;44.32
58979;BME280;44763;50.464;30.612;2023-05-23T10:19:23;100035.40;;;23.66;44.51
58979;BME280;44763;50.464;30.612;2023-05-23T10:21:56;100032.08;;;23.74;44.20
58979;BME280;44763;50.464;30.612;2023-05-23T10:24:25;100025.66;;;23.87;43.88
58979;BME280;44763;50.464;30.612;2023-05-23T10:26:54;100024.61;;;23.93;43.48
58979;BME280;44763;50.464;30.612;2023-05-23T10:29:22;100021.58;;;23.98;43.25
58979;BME280;44763;50.464;30.612;2023-05-23T10:31:50;100013.80;;;23.97;43.00
58979;BME280;44763;50.464;30.612;2023-05-23T10:34:31;100024.53;;;24.03;43.23
58979;BME280;44763;50.464;30.612;2023-05-23T10:37:05;100018.38;;;24.10;42.94
58979;BME280;44763;50.464;30.612;2023-05-23T10:42:18;100005.77;;;24.18;42.87
58979;BME280;44763;50.464;30.612;2023-05-23T10:44:47;100019.11;;;24.36;42.24
58979;BME280;44763;50.464;30.612;2023-05-23T10:47:25;100016.52;;;24.39;41.73
58979;BME280;44763;50.464;30.612;2023-05-23T10:49:54;100019.08;;;24.35;41.72
58979;BME280;44763;50.464;30.612;2023-05-23T10:52:23;100024.41;;;24.27;41.59
58979;BME280;44763;50.464;30.612;2023-05-23T10:54:54;100022.77;;;24.18;41.61
58979;BME280;44763;50.464;30.612;2023-05-23T10:57:24;100018.00;;;24.09;41.97
58979;BME280;44763;50.464;30.612;2023-05-23T10:59:54;100017.88;;;24.05;42.41
58979;BME280;44763;50.464;30.612;2023-05-23T11:02:26;100018.17;;;24.07;42.56
58979;BME280;44763;50.464;30.612;2023-05-23T11:08:06;100009.15;;;24.23;42.61
58979;BME280;44763;50.464;30.612;2023-05-23T11:11:13;100001.97;;;24.33;42.66
58979;BME280;44763;50.464;30.612;2023-05-23T11:13:54;100003.38;;;24.39;42.20
58979;BME280;44763;50.464;30.612;2023-05-23T11:16:27;99998.41;;;24.36;42.50
58979;BME280;44763;50.464;30.612;2023-05-23T11:19:20;99995.27;;;24.35;42.67
58979;BME280;44763;50.464;30.612;2023-05-23T11:24:16;99995.85;;;24.36;42.68
58979;BME280;44763;50.464;30.612;2023-05-23T11:26:57;99987.98;;;24.27;42.68
58979;BME280;44763;50.464;30.612;2023-05-23T11:29:30;100002.52;;;24.39;42.68
58979;BME280;44763;50.464;30.612;2023-05-23T11:31:57;99988.91;;;24.37;42.92
58979;BME280;44763;50.464;30.612;2023-05-23T11:34:25;100000.40;;;24.42;43.04
58979;BME280;44763;50.464;30.612;2023-05-23T11:36:53;99991.38;;;24.41;43.19
58979;BME280;44763;50.464;30.612;2023-05-23T11:39:22;99989.33;;;24.44;43.10
58979;BME280;44763;50.464;30.612;2023-05-23T11:42:02;99998.83;;;24.47;43.16
58979;BME280;44763;50.464;30.612;2023-05-23T11:44:30;99995.61;;;24.38;43.04
58979;BME280;44763;50.464;30.612;2023-05-23T11:47:06;99986.46;;;24.26;43.68
58979;BME280;44763;50.464;30.612;2023-05-23T11:49:35;99987.52;;;24.20;44.02
58979;BME280;44763;50.464;30.612;2023-05-23T11:52:06;99988.81;;;24.20;44.17
58979;BME280;44763;50.464;30.612;2023-05-23T11:54:33;99985.11;;;24.25;44.15
58979;BME280;44763;50.464;30.612;2023-05-23T11:57:01;99980.98;;;24.31;43.93
58979;BME280;44763;50.464;30.612;2023-05-23T11:59:28;99973.82;;;24.33;43.80
58979;BME280;44763;50.464;30.612;2023-05-23T12:01:58;99972.30;;;24.31;43.88
58979;BME280;44763;50.464;30.612;2023-05-23T12:04:39;99968.52;;;24.16;44.06
58979;BME280;44763;50.464;30.612;2023-05-23T12:07:06;99968.83;;;24.15;44.01
58979;BME280;44763;50.464;30.612;2023-05-23T12:09:41;99983.42;;;24.25;43.86
58979;BME280;44763;50.464;30.612;2023-05-23T12:12:08;99981.55;;;24.21;43.73
58979;BME280;44763;50.464;30.612;2023-05-23T12:14:35;99980.08;;;24.18;44.11
58979;BME280;44763;50.464;30.612;2023-05-23T12:17:05;99977.27;;;24.20;44.28
58979;BME280;44763;50.464;30.612;2023-05-23T12:19:44;99977.01;;;24.25;44.21
58979;BME280;44763;50.464;30.612;2023-05-23T12:22:12;99976.95;;;24.25;44.27
58979;BME280;44763;50.464;30.612;2023-05-23T12:24:44;99975.79;;;24.22;43.71
58979;BME280;44763;50.464;30.612;2023-05-23T12:27:15;99917.96;;;23.78;43.76
58979;BME280;44763;50.464;30.612;2023-05-23T12:29:49;99972.83;;;24.12;44.12
58979;BME280;44763;50.464;30.612;2023-05-23T12:32:17;99973.42;;;24.13;44.17
58979;BME280;44763;50.464;30.612;2023-05-23T12:34:44;99972.15;;;24.16;43.56
58979;BME280;44763;50.464;30.612;2023-05-23T12:37:12;99961.95;;;24.17;43.60
58979;BME280;44763;50.464;30.612;2023-05-23T12:39:46;99960.87;;;24.21;43.90
58979;BME280;44763;50.464;30.612;2023-05-23T12:42:13;99963.04;;;24.27;43.88
58979;BME280;44763;50.464;30.612;2023-05-23T12:44:40;99956.79;;;24.31;43.68
58979;BME280;44763;50.464;30.612;2023-05-23T12:47:08;99953.74;;;24.29;43.48
58979;BME280;44763;50.464;30.612;2023-05-23T12:49:38;99950.73;;;24.26;43.14
58979;BME280;44763;50.464;30.612;2023-05-23T12:52:05;99952.04;;;24.21;43.25
58979;BME280;44763;50.464;30.612;2023-05-23T12:54:32;99936.48;;;24.09;43.32
58979;BME280;44763;50.464;30.612;2023-05-23T12:56:59;99947.66;;;24.14;43.42
58979;BME280;44763;50.464;30.612;2023-05-23T12:59:27;99944.05;;;24.10;43.38
58979;BME280;44763;50.464;30.612;2023-05-23T13:01:54;99945.23;;;24.06;43.42
58979;BME280;44763;50.464;30.612;2023-05-23T13:04:21;99944.73;;;24.07;43.76
58979;BME280;44763;50.464;30.612;2023-05-23T13:06:48;99942.92;;;24.13;43.58
58979;BME280;44763;50.464;30.612;2023-05-23T13:09:14;99940.77;;;24.18;43.14
58979;BME280;44763;50.464;30.612;2023-05-23T13:11:41;99938.30;;;24.22;42.80
58979;BME280;44763;50.464;30.612;2023-05-23T13:14:08;99934.59;;;24.29;42.69
58979;BME280;44763;50.464;30.612;2023-05-23T13:16:35;99930.83;;;24.34;42.11
58979;BME280;44763;50.464;30.612;2023-05-23T13:19:02;99927.02;;;24.34;41.73
58979;BME280;44763;50.464;30.612;2023-05-23T13:21:30;99928.15;;;24.34;41.67
58979;BME280;44763;50.464;30.612;2023-05-23T13:23:57;99916.83;;;24.30;41.58
58979;BME280;44763;50.464;30.612;2023-05-23T13:26:24;99924.69;;;24.39;41.87
58979;BME280;44763;50.464;30.612;2023-05-23T13:28:51;99926.39;;;24.41;42.22
58979;BME280;44763;50.464;30.612;2023-05-23T13:31:18;99926.11;;;24.42;42.57
58979;BME280;44763;50.464;30.612;2023-05-23T13:33:44;99925.86;;;24.45;41.96
58979;BME280;44763;50.464;30.612;2023-05-23T13:36:12;99925.52;;;24.46;41.28
58979;BME280;44763;50.464;30.612;2023-05-23T13:38:38;99925.11;;;24.44;41.49
58979;BME280;44763;50.464;30.612;2023-05-23T13:41:05;99925.48;;;24.45;41.23
58979;BME280;44763;50.464;30.612;2023-05-23T13:43:32;99925.41;;;24.40;40.65
58979;BME280;44763;50.464;30.612;2023-05-23T13:45:59;99924.60;;;24.36;40.66
58979;BME280;44763;50.464;30.612;2023-05-23T13:48:28;99926.30;;;24.38;41.17
58979;BME280;44763;50.464;30.612;2023-05-23T13:50:55;99929.98;;;24.42;40.56
58979;BME280;44763;50.464;30.612;2023-05-23T13:53:21;99926.41;;;24.44;40.21
58979;BME280;44763;50.464;30.612;2023-05-23T13:55:48;99923.86;;;24.43;40.15
58979;BME280;44763;50.464;30.612;2023-05-23T13:58:15;99915.63;;;24.42;40.03
58979;BME280;44763;50.464;30.612;2023-05-23T14:00:41;99915.37;;;24.42;40.29
58979;BME280;44763;50.464;30.612;2023-05-23T14:03:08;99920.70;;;24.39;40.53
58979;BME280;44763;50.464;30.612;2023-05-23T14:05:35;99917.52;;;24.41;40.39
58979;BME280;44763;50.464;30.612;2023-05-23T14:08:02;99919.94;;;24.42;40.33
58979;BME280;44763;50.464;30.612;2023-05-23T14:10:30;99922.21;;;24.44;40.10
58979;BME280;44763;50.464;30.612;2023-05-23T14:12:58;99921.19;;;24.43;40.04
58979;BME280;44763;50.464;30.612;2023-05-23T14:15:25;99916.53;;;24.36;40.06
58979;BME280;44763;50.464;30.612;2023-05-23T14:17:53;99922.06;;;24.48;40.08
58979;BME280;44763;50.464;30.612;2023-05-23T14:20:23;99920.60;;;24.54;39.73
58979;BME280;44763;50.464;30.612;2023-05-23T14:22:51;99921.36;;;24.52;39.51
58979;BME280;44763;50.464;30.612;2023-05-23T14:25:18;99919.31;;;24.49;39.59
58979;BME280;44763;50.464;30.612;2023-05-23T14:27:45;99917.98;;;24.51;39.83